createdAt,value
2023-04-01T00:20:27.742Z,99541.81
2023-04-01T00:33:42.468Z,99543.03
2023-04-01T01:12:10.662Z,99590.03
2023-04-01T01:18:36.990Z,99600.34
2023-04-01T02:12:09.502Z,99667.72
2023-04-01T02:18:00.500Z,99678.19
2023-04-01T02:23:48.149Z,99691.72
2023-04-01T02:37:39.941Z,99696.56
2023-04-01T02:43:32.578Z,99707.63
2023-04-01T02:49:25.350Z,99703.25
2023-04-01T02:55:12.284Z,99708.47
2023-04-01T03:00:59.310Z,99709.63
2023-04-01T03:14:07.697Z,99721.78
2023-04-01T03:42:43.421Z,99748.75
2023-04-01T03:49:02.527Z,99764.34
2023-04-01T03:55:05.735Z,99762.78
2023-04-01T04:07:30.016Z,99777.84
2023-04-01T04:22:05.695Z,99789.16
2023-04-01T04:34:19.217Z,99801.47
2023-04-01T05:33:22.674Z,99869.16
2023-04-01T05:39:16.573Z,99864.47
2023-04-01T05:45:12.457Z,99877.25
2023-04-01T05:51:27.907Z,99872.72
2023-04-01T06:04:39.761Z,99894.94
2023-04-01T06:10:45.831Z,99896.66
2023-04-01T06:17:11.900Z,99894.88
2023-04-01T06:23:41.657Z,99902.63
2023-04-01T06:29:45.444Z,99917.47
2023-04-01T06:35:38.638Z,99921.69
2023-04-01T06:41:41.403Z,99918.84
2023-04-01T06:47:46.761Z,99935.09
2023-04-01T06:54:45.880Z,99937.75
2023-04-01T07:00:59.449Z,99947.66
2023-04-01T07:07:14.037Z,99956.59
2023-04-01T07:13:40.786Z,99968.44
2023-04-01T07:19:52.393Z,99983.72
2023-04-01T07:25:52.318Z,99995.63
2023-04-01T07:32:18.900Z,99996.16
2023-04-01T07:38:19.344Z,100001.81
2023-04-01T07:44:43.051Z,100007.13
2023-04-01T07:50:36.520Z,100024.28
2023-04-01T07:56:24.208Z,100027.25
2023-04-01T08:02:35.010Z,100031.88
2023-04-01T08:08:33.787Z,100046.06
2023-04-01T08:15:23.134Z,100045.59
2023-04-01T08:21:25.245Z,100061.66
2023-04-01T08:27:22.679Z,100073.69
2023-04-01T08:33:18.283Z,100071.19
2023-04-01T08:39:22.912Z,100094.94
2023-04-01T08:45:29.935Z,100091.13
2023-04-01T08:52:01.269Z,100100.28
2023-04-01T08:58:31.285Z,100101.44
2023-04-01T09:05:41.988Z,100100.53
2023-04-01T09:11:54.427Z,100111.59
2023-04-01T09:18:19.349Z,100128.00
2023-04-01T09:24:45.661Z,100127.97
2023-04-01T09:30:36.225Z,100139.63
2023-04-01T09:37:06.062Z,100134.31
2023-04-01T09:43:05.734Z,100153.75
2023-04-01T09:49:07.406Z,100151.47
2023-04-01T10:10:03.198Z,100170.53
2023-04-01T10:16:54.140Z,100178.03
2023-04-01T10:22:57.096Z,100201.19
2023-04-01T10:28:53.953Z,100208.84
2023-04-01T10:41:52.619Z,100227.69
2023-04-01T10:48:56.859Z,100233.38
2023-04-01T10:55:13.018Z,100243.22
2023-04-01T11:02:27.299Z,100256.78
2023-04-01T11:09:02.292Z,100254.59
2023-04-01T11:22:49.907Z,100269.13
2023-04-01T11:37:25.383Z,100286.41
2023-04-01T11:44:31.777Z,100286.66
2023-04-01T11:50:42.117Z,100283.97
2023-04-01T11:57:05.520Z,100292.84
2023-04-01T12:04:05.570Z,100304.19
2023-04-01T12:10:09.756Z,100321.94
2023-04-01T12:16:09.022Z,100324.91
2023-04-01T12:22:20.432Z,100318.66
2023-04-01T12:35:24.237Z,100334.91
2023-04-01T12:42:23.420Z,100341.03
2023-04-01T12:56:47.690Z,100363.81
2023-04-01T13:03:06.731Z,100366.47
2023-04-01T13:09:18.060Z,100374.81
2023-04-01T13:15:39.758Z,100389.50
2023-04-01T13:29:04.042Z,100382.75
2023-04-01T13:41:39.864Z,100418.50
2023-04-01T13:47:58.878Z,100432.09
2023-04-01T14:01:28.658Z,100462.91
2023-04-01T14:07:51.320Z,100456.97
2023-04-01T14:14:05.655Z,100465.66
2023-04-01T14:20:22.209Z,100465.31
2023-04-01T14:26:24.295Z,100479.06
2023-04-01T14:32:20.426Z,100495.63
2023-04-01T14:38:32.323Z,100506.22
2023-04-01T14:44:43.118Z,100517.00
2023-04-01T14:50:41.785Z,100511.53
2023-04-01T14:56:49.391Z,100527.97
2023-04-01T15:02:45.498Z,100536.63
2023-04-01T15:09:47.657Z,100545.53
2023-04-01T15:16:01.264Z,100563.41
2023-04-01T15:22:20.614Z,100559.44
2023-04-01T15:28:31.593Z,100577.50
2023-04-01T15:34:30.103Z,100591.41
2023-04-01T15:41:02.313Z,100595.97
2023-04-01T15:47:05.106Z,100606.03
2023-04-01T15:53:58.697Z,100616.44
2023-04-01T16:27:22.550Z,100677.91
2023-04-01T16:33:20.700Z,100690.94
2023-04-01T16:39:46.585Z,100690.72
2023-04-01T16:46:26.935Z,100702.94
2023-04-01T16:53:01.195Z,100711.91
2023-04-01T17:12:57.311Z,100752.09
2023-04-01T17:19:08.031Z,100764.31
2023-04-01T17:25:08.351Z,100783.84
2023-04-01T17:37:28.613Z,100797.63
2023-04-01T17:43:36.532Z,100796.00
2023-04-01T17:50:28.270Z,100807.69
2023-04-01T17:56:19.388Z,100807.91
2023-04-01T18:02:59.971Z,100819.25
2023-04-01T18:15:57.590Z,100853.41
2023-04-01T18:22:43.461Z,100855.25
2023-04-01T18:28:34.086Z,100879.31
2023-04-01T18:35:12.200Z,100890.41
2023-04-01T18:49:10.157Z,100914.50
2023-04-01T18:55:19.588Z,100934.56
2023-04-01T19:02:08.955Z,100946.69
2023-04-01T19:08:24.111Z,100950.41
2023-04-01T19:14:28.990Z,100969.94
2023-04-01T19:20:52.659Z,100972.56
2023-04-01T19:27:21.242Z,100993.75
2023-04-01T19:41:13.052Z,101036.00
2023-04-01T19:47:23.991Z,101050.72
2023-04-01T19:53:57.987Z,101066.78
2023-04-01T19:59:59.414Z,101080.50
2023-04-01T20:06:25.652Z,101096.59
2023-04-01T20:13:10.396Z,101105.81
2023-04-01T20:19:01.411Z,101124.41
2023-04-01T20:24:49.679Z,101132.63
2023-04-01T20:32:01.361Z,101150.47
2023-04-01T20:37:52.525Z,101166.28
2023-04-01T20:43:51.496Z,101172.34
2023-04-01T20:56:55.749Z,101186.50
2023-04-01T21:03:06.787Z,101190.59
2023-04-01T21:09:18.143Z,101193.84
2023-04-01T21:15:43.670Z,101215.13
2023-04-01T21:22:36.064Z,101214.13
2023-04-01T21:28:49.574Z,101227.53
2023-04-01T21:35:04.333Z,101232.97
2023-04-01T21:42:09.603Z,101235.50
2023-04-01T21:47:45.875Z,101251.38
2023-04-01T21:54:14.272Z,101255.66
2023-04-01T22:00:14.412Z,101268.72
2023-04-01T22:06:24.627Z,101282.66
2023-04-01T22:12:46.042Z,101282.59
2023-04-01T22:18:36.087Z,101296.78
2023-04-01T22:24:42.812Z,101305.25
2023-04-01T22:30:54.420Z,101304.66
2023-04-01T22:37:13.392Z,101315.59
2023-04-01T22:43:05.479Z,101325.97
2023-04-01T22:57:04.531Z,101353.94
2023-04-01T23:11:33.738Z,101350.28
2023-04-01T23:17:41.884Z,101377.13
2023-04-01T23:23:57.829Z,101373.72
2023-04-01T23:29:48.778Z,101381.78
2023-04-01T23:35:52.191Z,101392.41
2023-04-01T23:41:39.193Z,101393.34
2023-04-01T23:47:34.971Z,101412.16
2023-04-01T23:53:35.168Z,101426.94
2023-04-01T23:59:31.223Z,101437.25
